sensor_id;sensor_type;location;lat;lon;timestamp;P1;durP1;ratioP1;P2;durP2;ratioP2
32228;SDS011;18717;48.034;11.186;2023-02-19T00:01:34;9.48;;;9.00;;
32228;SDS011;18717;48.034;11.186;2023-02-19T00:04:04;9.50;;;8.90;;
32228;SDS011;18717;48.034;11.186;2023-02-19T00:06:33;9.18;;;8.68;;
32228;SDS011;18717;48.034;11.186;2023-02-19T00:09:01;9.20;;;8.70;;
32228;SDS011;18717;48.034;11.186;2023-02-19T00:11:30;10.00;;;9.35;;
32228;SDS011;18717;48.034;11.186;2023-02-19T00:14:00;9.82;;;9.32;;
32228;SDS011;18717;48.034;11.186;2023-02-19T00:16:29;9.70;;;9.20;;
32228;SDS011;18717;48.034;11.186;2023-02-19T00:18:58;8.88;;;8.38;;
32228;SDS011;18717;48.034;11.186;2023-02-19T00:21:27;9.23;;;8.63;;
32228;SDS011;18717;48.034;11.186;2023-02-19T00:23:56;9.77;;;9.25;;
32228;SDS011;18717;48.034;11.186;2023-02-19T00:26:25;10.57;;;9.88;;
32228;SDS011;18717;48.034;11.186;2023-02-19T00:28:53;9.13;;;8.63;;
32228;SDS011;18717;48.034;11.186;2023-02-19T00:31:23;9.73;;;8.85;;
32228;SDS011;18717;48.034;11.186;2023-02-19T00:33:52;9.43;;;8.90;;
32228;SDS011;18717;48.034;11.186;2023-02-19T00:36:21;9.85;;;9.15;;
32228;SDS011;18717;48.034;11.186;2023-02-19T00:38:49;9.60;;;9.05;;
32228;SDS011;18717;48.034;11.186;2023-02-19T00:41:18;9.52;;;9.02;;
32228;SDS011;18717;48.034;11.186;2023-02-19T00:43:47;9.77;;;9.27;;
32228;SDS011;18717;48.034;11.186;2023-02-19T00:46:16;10.70;;;10.00;;
32228;SDS011;18717;48.034;11.186;2023-02-19T00:48:47;9.15;;;8.73;;
32228;SDS011;18717;48.034;11.186;2023-02-19T00:51:15;9.23;;;8.73;;
32228;SDS011;18717;48.034;11.186;2023-02-19T00:53:42;9.85;;;9.32;;
32228;SDS011;18717;48.034;11.186;2023-02-19T00:56:10;10.07;;;9.48;;
32228;SDS011;18717;48.034;11.186;2023-02-19T00:58:38;10.27;;;9.57;;
32228;SDS011;18717;48.034;11.186;2023-02-19T01:01:06;10.93;;;10.32;;
32228;SDS011;18717;48.034;11.186;2023-02-19T01:03:37;9.13;;;8.63;;
32228;SDS011;18717;48.034;11.186;2023-02-19T01:06:07;9.45;;;8.98;;
32228;SDS011;18717;48.034;11.186;2023-02-19T01:08:35;9.77;;;9.18;;
32228;SDS011;18717;48.034;11.186;2023-02-19T01:11:04;9.15;;;8.75;;
32228;SDS011;18717;48.034;11.186;2023-02-19T01:13:33;9.80;;;9.30;;
32228;SDS011;18717;48.034;11.186;2023-02-19T01:16:04;9.63;;;9.13;;
32228;SDS011;18717;48.034;11.186;2023-02-19T01:18:32;8.95;;;8.55;;
32228;SDS011;18717;48.034;11.186;2023-02-19T01:21:03;10.05;;;9.45;;
32228;SDS011;18717;48.034;11.186;2023-02-19T01:23:33;9.52;;;9.02;;
32228;SDS011;18717;48.034;11.186;2023-02-19T01:26:02;9.77;;;9.20;;
32228;SDS011;18717;48.034;11.186;2023-02-19T01:28:31;10.45;;;9.68;;
32228;SDS011;18717;48.034;11.186;2023-02-19T01:31:00;9.93;;;9.32;;
32228;SDS011;18717;48.034;11.186;2023-02-19T01:33:28;9.80;;;9.23;;
32228;SDS011;18717;48.034;11.186;2023-02-19T01:35:55;9.77;;;9.20;;
32228;SDS011;18717;48.034;11.186;2023-02-19T01:38:23;9.60;;;9.00;;
32228;SDS011;18717;48.034;11.186;2023-02-19T01:40:56;10.23;;;9.50;;
32228;SDS011;18717;48.034;11.186;2023-02-19T01:43:24;10.20;;;9.60;;
32228;SDS011;18717;48.034;11.186;2023-02-19T01:45:52;10.60;;;9.90;;
32228;SDS011;18717;48.034;11.186;2023-02-19T01:48:21;9.55;;;9.07;;
32228;SDS011;18717;48.034;11.186;2023-02-19T01:50:51;9.60;;;9.10;;
32228;SDS011;18717;48.034;11.186;2023-02-19T01:53:21;9.38;;;8.77;;
32228;SDS011;18717;48.034;11.186;2023-02-19T01:55:51;10.20;;;9.55;;
32228;SDS011;18717;48.034;11.186;2023-02-19T01:58:23;9.77;;;9.20;;
32228;SDS011;18717;48.034;11.186;2023-02-19T02:00:52;9.77;;;9.27;;
32228;SDS011;18717;48.034;11.186;2023-02-19T02:03:20;10.00;;;9.40;;
32228;SDS011;18717;48.034;11.186;2023-02-19T02:05:49;9.65;;;9.15;;
32228;SDS011;18717;48.034;11.186;2023-02-19T02:08:20;9.23;;;8.73;;
32228;SDS011;18717;48.034;11.186;2023-02-19T02:11:06;9.40;;;8.90;;
32228;SDS011;18717;48.034;11.186;2023-02-19T02:13:36;9.43;;;8.98;;
32228;SDS011;18717;48.034;11.186;2023-02-19T02:16:08;10.07;;;9.50;;
32228;SDS011;18717;48.034;11.186;2023-02-19T02:18:47;9.45;;;9.05;;
32228;SDS011;18717;48.034;11.186;2023-02-19T02:21:28;10.07;;;9.48;;
32228;SDS011;18717;48.034;11.186;2023-02-19T02:24:05;10.02;;;9.43;;
32228;SDS011;18717;48.034;11.186;2023-02-19T02:26:42;11.32;;;10.63;;
32228;SDS011;18717;48.034;11.186;2023-02-19T02:29:30;10.00;;;8.98;;
32228;SDS011;18717;48.034;11.186;2023-02-19T02:32:12;9.27;;;8.73;;
32228;SDS011;18717;48.034;11.186;2023-02-19T02:34:44;9.20;;;8.63;;
32228;SDS011;18717;48.034;11.186;2023-02-19T02:39:42;9.90;;;9.20;;
32228;SDS011;18717;48.034;11.186;2023-02-19T02:42:12;9.45;;;8.95;;
32228;SDS011;18717;48.034;11.186;2023-02-19T02:44:56;9.15;;;8.55;;
32228;SDS011;18717;48.034;11.186;2023-02-19T02:47:43;9.70;;;9.07;;
32228;SDS011;18717;48.034;11.186;2023-02-19T02:50:12;10.55;;;9.57;;
32228;SDS011;18717;48.034;11.186;2023-02-19T02:52:42;9.75;;;9.05;;
32228;SDS011;18717;48.034;11.186;2023-02-19T02:55:29;9.23;;;8.63;;
32228;SDS011;18717;48.034;11.186;2023-02-19T02:57:57;10.30;;;9.65;;
32228;SDS011;18717;48.034;11.186;2023-02-19T03:00:27;8.98;;;8.50;;
32228;SDS011;18717;48.034;11.186;2023-02-19T03:03:16;10.10;;;9.30;;
32228;SDS011;18717;48.034;11.186;2023-02-19T03:05:45;9.63;;;8.98;;
32228;SDS011;18717;48.034;11.186;2023-02-19T03:08:21;10.35;;;9.80;;
32228;SDS011;18717;48.034;11.186;2023-02-19T03:10:51;9.82;;;9.15;;
32228;SDS011;18717;48.034;11.186;2023-02-19T03:13:22;8.80;;;8.40;;
32228;SDS011;18717;48.034;11.186;2023-02-19T03:16:13;10.27;;;9.68;;
32228;SDS011;18717;48.034;11.186;2023-02-19T03:19:00;8.95;;;8.45;;
32228;SDS011;18717;48.034;11.186;2023-02-19T03:21:49;10.20;;;9.50;;
32228;SDS011;18717;48.034;11.186;2023-02-19T03:24:20;10.30;;;9.43;;
32228;SDS011;18717;48.034;11.186;2023-02-19T03:27:07;11.07;;;10.05;;
32228;SDS011;18717;48.034;11.186;2023-02-19T03:29:36;9.73;;;9.23;;
32228;SDS011;18717;48.034;11.186;2023-02-19T03:32:07;10.35;;;9.20;;
32228;SDS011;18717;48.034;11.186;2023-02-19T03:34:39;9.70;;;9.10;;
32228;SDS011;18717;48.034;11.186;2023-02-19T03:37:11;10.23;;;9.52;;
32228;SDS011;18717;48.034;11.186;2023-02-19T03:39:40;10.20;;;9.40;;
32228;SDS011;18717;48.034;11.186;2023-02-19T03:42:13;10.90;;;9.32;;
32228;SDS011;18717;48.034;11.186;2023-02-19T03:44:45;11.20;;;10.18;;
32228;SDS011;18717;48.034;11.186;2023-02-19T03:47:21;9.95;;;9.27;;
32228;SDS011;18717;48.034;11.186;2023-02-19T03:49:52;10.80;;;9.82;;
32228;SDS011;18717;48.034;11.186;2023-02-19T03:52:24;10.73;;;9.93;;
32228;SDS011;18717;48.034;11.186;2023-02-19T03:55:04;10.00;;;9.40;;
32228;SDS011;18717;48.034;11.186;2023-02-19T03:57:36;10.07;;;9.13;;
32228;SDS011;18717;48.034;11.186;2023-02-19T04:00:09;9.60;;;8.85;;
32228;SDS011;18717;48.034;11.186;2023-02-19T04:02:40;9.75;;;9.15;;
32228;SDS011;18717;48.034;11.186;2023-02-19T04:05:10;10.40;;;9.60;;
32228;SDS011;18717;48.034;11.186;2023-02-19T04:07:42;10.27;;;9.50;;
32228;SDS011;18717;48.034;11.186;2023-02-19T04:10:12;9.93;;;9.23;;
32228;SDS011;18717;48.034;11.186;2023-02-19T04:12:41;10.73;;;9.93;;
32228;SDS011;18717;48.034;11.186;2023-02-19T04:15:11;10.40;;;9.80;;
32228;SDS011;18717;48.034;11.186;2023-02-19T04:17:42;9.10;;;8.60;;
32228;SDS011;18717;48.034;11.186;2023-02-19T04:20:13;10.48;;;9.60;;
32228;SDS011;18717;48.034;11.186;2023-02-19T04:22:41;10.82;;;10.02;;
32228;SDS011;18717;48.034;11.186;2023-02-19T04:25:09;9.73;;;9.13;;
32228;SDS011;18717;48.034;11.186;2023-02-19T04:27:37;9.60;;;9.07;;
32228;SDS011;18717;48.034;11.186;2023-02-19T04:30:06;10.00;;;9.43;;
32228;SDS011;18717;48.034;11.186;2023-02-19T04:32:35;10.57;;;9.70;;
32228;SDS011;18717;48.034;11.186;2023-02-19T04:35:05;10.63;;;9.77;;
32228;SDS011;18717;48.034;11.186;2023-02-19T04:37:32;10.40;;;9.70;;
32228;SDS011;18717;48.034;11.186;2023-02-19T04:40:00;10.38;;;9.68;;
32228;SDS011;18717;48.034;11.186;2023-02-19T04:42:28;10.15;;;9.45;;
32228;SDS011;18717;48.034;11.186;2023-02-19T04:44:55;10.82;;;9.95;;
32228;SDS011;18717;48.034;11.186;2023-02-19T04:47:23;9.23;;;8.55;;
32228;SDS011;18717;48.034;11.186;2023-02-19T04:49:51;9.77;;;9.18;;
32228;SDS011;18717;48.034;11.186;2023-02-19T04:52:20;9.30;;;8.75;;
32228;SDS011;18717;48.034;11.186;2023-02-19T04:54:47;8.63;;;8.05;;
32228;SDS011;18717;48.034;11.186;2023-02-19T04:57:15;9.50;;;8.90;;
32228;SDS011;18717;48.034;11.186;2023-02-19T04:59:42;9.77;;;9.07;;
32228;SDS011;18717;48.034;11.186;2023-02-19T05:02:10;8.90;;;8.30;;
32228;SDS011;18717;48.034;11.186;2023-02-19T05:04:38;9.40;;;8.60;;
32228;SDS011;18717;48.034;11.186;2023-02-19T05:07:05;9.38;;;8.80;;
32228;SDS011;18717;48.034;11.186;2023-02-19T05:09:34;8.50;;;8.00;;
32228;SDS011;18717;48.034;11.186;2023-02-19T05:12:02;9.63;;;8.88;;
32228;SDS011;18717;48.034;11.186;2023-02-19T05:14:30;10.15;;;9.45;;
32228;SDS011;18717;48.034;11.186;2023-02-19T05:16:57;9.55;;;8.95;;
32228;SDS011;18717;48.034;11.186;2023-02-19T05:19:25;8.57;;;8.07;;
32228;SDS011;18717;48.034;11.186;2023-02-19T05:21:53;8.95;;;8.15;;
32228;SDS011;18717;48.034;11.186;2023-02-19T05:24:20;9.02;;;8.52;;
32228;SDS011;18717;48.034;11.186;2023-02-19T05:26:50;9.35;;;8.75;;
32228;SDS011;18717;48.034;11.186;2023-02-19T05:29:18;8.88;;;8.38;;
32228;SDS011;18717;48.034;11.186;2023-02-19T05:31:46;9.40;;;8.48;;
32228;SDS011;18717;48.034;11.186;2023-02-19T05:34:14;8.80;;;8.30;;
32228;SDS011;18717;48.034;11.186;2023-02-19T05:36:41;9.70;;;9.20;;
32228;SDS011;18717;48.034;11.186;2023-02-19T05:39:10;8.75;;;8.35;;
32228;SDS011;18717;48.034;11.186;2023-02-19T05:41:38;8.70;;;8.20;;
32228;SDS011;18717;48.034;11.186;2023-02-19T05:44:08;8.38;;;7.88;;
32228;SDS011;18717;48.034;11.186;2023-02-19T05:46:36;9.48;;;8.88;;
32228;SDS011;18717;48.034;11.186;2023-02-19T05:49:03;9.60;;;9.05;;
32228;SDS011;18717;48.034;11.186;2023-02-19T05:51:31;8.45;;;7.80;;
32228;SDS011;18717;48.034;11.186;2023-02-19T05:53:58;9.27;;;8.68;;
32228;SDS011;18717;48.034;11.186;2023-02-19T05:56:29;8.93;;;8.40;;
32228;SDS011;18717;48.034;11.186;2023-02-19T05:58:57;8.50;;;8.00;;
32228;SDS011;18717;48.034;11.186;2023-02-19T06:01:27;9.02;;;8.43;;
32228;SDS011;18717;48.034;11.186;2023-02-19T06:03:55;8.82;;;8.32;;
32228;SDS011;18717;48.034;11.186;2023-02-19T06:06:23;8.55;;;8.05;;
32228;SDS011;18717;48.034;11.186;2023-02-19T06:08:52;9.32;;;8.68;;
32228;SDS011;18717;48.034;11.186;2023-02-19T06:11:20;9.02;;;8.52;;
32228;SDS011;18717;48.034;11.186;2023-02-19T06:13:48;9.07;;;8.48;;
32228;SDS011;18717;48.034;11.186;2023-02-19T06:16:16;8.90;;;8.27;;
32228;SDS011;18717;48.034;11.186;2023-02-19T06:18:46;8.95;;;8.45;;
32228;SDS011;18717;48.034;11.186;2023-02-19T06:21:14;8.75;;;8.23;;
32228;SDS011;18717;48.034;11.186;2023-02-19T06:23:43;9.68;;;8.60;;
32228;SDS011;18717;48.034;11.186;2023-02-19T06:26:12;8.68;;;8.18;;
32228;SDS011;18717;48.034;11.186;2023-02-19T06:28:41;8.35;;;7.93;;
32228;SDS011;18717;48.034;11.186;2023-02-19T06:31:08;8.90;;;8.30;;
32228;SDS011;18717;48.034;11.186;2023-02-19T06:33:37;9.45;;;8.85;;
32228;SDS011;18717;48.034;11.186;2023-02-19T06:36:09;9.30;;;8.80;;
32228;SDS011;18717;48.034;11.186;2023-02-19T06:41:05;9.15;;;8.65;;
32228;SDS011;18717;48.034;11.186;2023-02-19T06:43:34;9.43;;;8.93;;
32228;SDS011;18717;48.034;11.186;2023-02-19T06:46:03;9.82;;;9.00;;
32228;SDS011;18717;48.034;11.186;2023-02-19T06:48:32;9.48;;;8.88;;
32228;SDS011;18717;48.034;11.186;2023-02-19T06:51:00;9.48;;;8.82;;
32228;SDS011;18717;48.034;11.186;2023-02-19T06:53:29;9.73;;;9.13;;
32228;SDS011;18717;48.034;11.186;2023-02-19T06:55:57;10.13;;;9.52;;
32228;SDS011;18717;48.034;11.186;2023-02-19T06:58:25;10.52;;;9.88;;
32228;SDS011;18717;48.034;11.186;2023-02-19T07:00:53;9.98;;;9.38;;
32228;SDS011;18717;48.034;11.186;2023-02-19T07:03:21;9.27;;;8.77;;
32228;SDS011;18717;48.034;11.186;2023-02-19T07:05:49;9.65;;;9.05;;
32228;SDS011;18717;48.034;11.186;2023-02-19T07:08:17;10.27;;;9.68;;
32228;SDS011;18717;48.034;11.186;2023-02-19T07:10:52;9.13;;;8.68;;
32228;SDS011;18717;48.034;11.186;2023-02-19T07:13:20;9.60;;;9.02;;
32228;SDS011;18717;48.034;11.186;2023-02-19T07:15:48;9.82;;;9.05;;
32228;SDS011;18717;48.034;11.186;2023-02-19T07:18:17;9.10;;;8.57;;
32228;SDS011;18717;48.034;11.186;2023-02-19T07:20:45;9.73;;;9.13;;
32228;SDS011;18717;48.034;11.186;2023-02-19T07:23:12;9.40;;;8.82;;
32228;SDS011;18717;48.034;11.186;2023-02-19T07:25:40;9.50;;;8.80;;
32228;SDS011;18717;48.034;11.186;2023-02-19T07:28:09;9.93;;;9.32;;
32228;SDS011;18717;48.034;11.186;2023-02-19T07:30:37;9.55;;;8.95;;
32228;SDS011;18717;48.034;11.186;2023-02-19T07:33:04;9.23;;;8.73;;
32228;SDS011;18717;48.034;11.186;2023-02-19T07:35:35;9.60;;;9.10;;
32228;SDS011;18717;48.034;11.186;2023-02-19T07:38:03;9.52;;;8.98;;
32228;SDS011;18717;48.034;11.186;2023-02-19T07:40:30;9.60;;;9.05;;
32228;SDS011;18717;48.034;11.186;2023-02-19T07:42:58;9.73;;;9.13;;
32228;SDS011;18717;48.034;11.186;2023-02-19T07:45:27;9.55;;;8.95;;
32228;SDS011;18717;48.034;11.186;2023-02-19T07:47:55;9.38;;;8.88;;
32228;SDS011;18717;48.034;11.186;2023-02-19T07:50:22;10.35;;;9.65;;
32228;SDS011;18717;48.034;11.186;2023-02-19T07:52:50;9.70;;;9.13;;
32228;SDS011;18717;48.034;11.186;2023-02-19T07:55:18;9.32;;;8.82;;
32228;SDS011;18717;48.034;11.186;2023-02-19T07:57:45;9.25;;;8.75;;
32228;SDS011;18717;48.034;11.186;2023-02-19T08:00:13;9.38;;;8.98;;
32228;SDS011;18717;48.034;11.186;2023-02-19T08:02:43;10.10;;;9.48;;
32228;SDS011;18717;48.034;11.186;2023-02-19T08:05:29;9.48;;;8.85;;
32228;SDS011;18717;48.034;11.186;2023-02-19T08:07:58;9.77;;;9.07;;
32228;SDS011;18717;48.034;11.186;2023-02-19T08:10:26;9.25;;;8.75;;
32228;SDS011;18717;48.034;11.186;2023-02-19T08:13:13;9.55;;;8.80;;
32228;SDS011;18717;48.034;11.186;2023-02-19T08:15:49;9.05;;;8.55;;
32228;SDS011;18717;48.034;11.186;2023-02-19T08:18:19;10.73;;;9.68;;
32228;SDS011;18717;48.034;11.186;2023-02-19T08:20:48;8.75;;;8.32;;
32228;SDS011;18717;48.034;11.186;2023-02-19T08:23:16;9.82;;;9.13;;
32228;SDS011;18717;48.034;11.186;2023-02-19T08:25:45;9.50;;;8.90;;
32228;SDS011;18717;48.034;11.186;2023-02-19T08:28:14;9.90;;;9.27;;
32228;SDS011;18717;48.034;11.186;2023-02-19T08:30:42;9.23;;;8.55;;
32228;SDS011;18717;48.034;11.186;2023-02-19T08:33:12;9.32;;;8.82;;
32228;SDS011;18717;48.034;11.186;2023-02-19T08:35:43;10.13;;;9.32;;
32228;SDS011;18717;48.034;11.186;2023-02-19T08:38:11;10.02;;;9.43;;
32228;SDS011;18717;48.034;11.186;2023-02-19T08:40:41;9.85;;;9.25;;
32228;SDS011;18717;48.034;11.186;2023-02-19T08:43:10;10.38;;;9.68;;
32228;SDS011;18717;48.034;11.186;2023-02-19T08:45:39;9.90;;;9.40;;
32228;SDS011;18717;48.034;11.186;2023-02-19T08:48:07;10.57;;;9.98;;
32228;SDS011;18717;48.034;11.186;2023-02-19T08:50:35;10.18;;;9.48;;
32228;SDS011;18717;48.034;11.186;2023-02-19T08:53:05;9.85;;;9.25;;
32228;SDS011;18717;48.034;11.186;2023-02-19T08:55:33;9.43;;;8.93;;
32228;SDS011;18717;48.034;11.186;2023-02-19T08:58:00;12.23;;;11.10;;
32228;SDS011;18717;48.034;11.186;2023-02-19T09:00:28;10.02;;;9.23;;
32228;SDS011;18717;48.034;11.186;2023-02-19T09:02:56;10.23;;;9.27;;
32228;SDS011;18717;48.034;11.186;2023-02-19T09:05:24;11.10;;;10.07;;
32228;SDS011;18717;48.034;11.186;2023-02-19T09:07:51;9.90;;;9.30;;
32228;SDS011;18717;48.034;11.186;2023-02-19T09:10:20;9.70;;;9.10;;
32228;SDS011;18717;48.034;11.186;2023-02-19T09:12:48;9.07;;;8.57;;
32228;SDS011;18717;48.034;11.186;2023-02-19T09:15:16;8.82;;;8.43;;
32228;SDS011;18717;48.034;11.186;2023-02-19T09:17:44;8.43;;;8.05;;
32228;SDS011;18717;48.034;11.186;2023-02-19T09:20:11;8.90;;;8.45;;
32228;SDS011;18717;48.034;11.186;2023-02-19T09:22:39;8.75;;;8.15;;
32228;SDS011;18717;48.034;11.186;2023-02-19T09:25:07;8.32;;;7.93;;
32228;SDS011;18717;48.034;11.186;2023-02-19T09:27:36;9.48;;;8.88;;
32228;SDS011;18717;48.034;11.186;2023-02-19T09:30:03;9.00;;;8.40;;
32228;SDS011;18717;48.034;11.186;2023-02-19T09:32:32;8.27;;;7.88;;
32228;SDS011;18717;48.034;11.186;2023-02-19T09:34:59;8.65;;;8.15;;
32228;SDS011;18717;48.034;11.186;2023-02-19T09:37:27;8.00;;;7.60;;
32228;SDS011;18717;48.034;11.186;2023-02-19T09:39:55;8.43;;;8.13;;
32228;SDS011;18717;48.034;11.186;2023-02-19T09:42:23;8.23;;;7.72;;
32228;SDS011;18717;48.034;11.186;2023-02-19T09:47:24;7.65;;;7.35;;
32228;SDS011;18717;48.034;11.186;2023-02-19T09:49:53;8.85;;;8.25;;
32228;SDS011;18717;48.034;11.186;2023-02-19T09:52:24;8.35;;;7.97;;
32228;SDS011;18717;48.034;11.186;2023-02-19T09:54:57;8.40;;;7.93;;
32228;SDS011;18717;48.034;11.186;2023-02-19T09:57:27;8.88;;;8.35;;
32228;SDS011;18717;48.034;11.186;2023-02-19T09:59:59;8.40;;;7.90;;
32228;SDS011;18717;48.034;11.186;2023-02-19T10:02:30;8.68;;;8.18;;
32228;SDS011;18717;48.034;11.186;2023-02-19T10:04:58;7.65;;;7.35;;
32228;SDS011;18717;48.034;11.186;2023-02-19T10:07:32;8.13;;;7.72;;
32228;SDS011;18717;48.034;11.186;2023-02-19T10:10:04;8.55;;;8.13;;
32228;SDS011;18717;48.034;11.186;2023-02-19T10:12:45;8.85;;;8.35;;
32228;SDS011;18717;48.034;11.186;2023-02-19T10:15:18;8.48;;;8.05;;
32228;SDS011;18717;48.034;11.186;2023-02-19T10:17:50;7.78;;;7.40;;
32228;SDS011;18717;48.034;11.186;2023-02-19T10:20:18;8.30;;;7.90;;
32228;SDS011;18717;48.034;11.186;2023-02-19T10:22:56;7.65;;;7.35;;
32228;SDS011;18717;48.034;11.186;2023-02-19T10:25:25;7.97;;;7.57;;
32228;SDS011;18717;48.034;11.186;2023-02-19T10:27:53;7.93;;;7.53;;
32228;SDS011;18717;48.034;11.186;2023-02-19T10:30:23;7.97;;;7.57;;
32228;SDS011;18717;48.034;11.186;2023-02-19T10:32:59;8.10;;;7.70;;
32228;SDS011;18717;48.034;11.186;2023-02-19T10:35:28;7.28;;;6.97;;
32228;SDS011;18717;48.034;11.186;2023-02-19T10:37:56;7.43;;;7.13;;
32228;SDS011;18717;48.034;11.186;2023-02-19T10:40:24;8.00;;;7.60;;
32228;SDS011;18717;48.034;11.186;2023-02-19T10:42:53;8.32;;;8.02;;
32228;SDS011;18717;48.034;11.186;2023-02-19T10:45:28;8.52;;;8.13;;
32228;SDS011;18717;48.034;11.186;2023-02-19T10:48:00;7.78;;;7.47;;
32228;SDS011;18717;48.034;11.186;2023-02-19T10:50:30;8.35;;;7.95;;
32228;SDS011;18717;48.034;11.186;2023-02-19T10:52:59;8.02;;;7.53;;
32228;SDS011;18717;48.034;11.186;2023-02-19T10:55:28;8.35;;;7.97;;
32228;SDS011;18717;48.034;11.186;2023-02-19T10:57:58;7.95;;;7.57;;
32228;SDS011;18717;48.034;11.186;2023-02-19T11:03:36;7.60;;;7.30;;
32228;SDS011;18717;48.034;11.186;2023-02-19T11:06:04;8.48;;;7.97;;
32228;SDS011;18717;48.034;11.186;2023-02-19T11:08:39;7.30;;;7.00;;
32228;SDS011;18717;48.034;11.186;2023-02-19T11:11:22;7.93;;;7.63;;
32228;SDS011;18717;48.034;11.186;2023-02-19T11:13:51;7.57;;;7.18;;
32228;SDS011;18717;48.034;11.186;2023-02-19T11:16:21;8.35;;;7.95;;
32228;SDS011;18717;48.034;11.186;2023-02-19T11:18:52;8.07;;;7.78;;
32228;SDS011;18717;48.034;11.186;2023-02-19T11:21:24;7.78;;;7.47;;
32228;SDS011;18717;48.034;11.186;2023-02-19T11:23:58;7.40;;;7.10;;
32228;SDS011;18717;48.034;11.186;2023-02-19T11:26:26;7.57;;;7.28;;
32228;SDS011;18717;48.034;11.186;2023-02-19T11:28:58;7.82;;;7.53;;
32228;SDS011;18717;48.034;11.186;2023-02-19T11:31:28;7.80;;;7.50;;
32228;SDS011;18717;48.034;11.186;2023-02-19T11:33:58;8.27;;;7.97;;
32228;SDS011;18717;48.034;11.186;2023-02-19T11:36:30;8.30;;;7.90;;
32228;SDS011;18717;48.034;11.186;2023-02-19T11:39:00;7.60;;;7.22;;
32228;SDS011;18717;48.034;11.186;2023-02-19T11:41:39;7.22;;;6.93;;
32228;SDS011;18717;48.034;11.186;2023-02-19T11:44:22;7.75;;;7.45;;
32228;SDS011;18717;48.034;11.186;2023-02-19T11:47:18;8.02;;;7.53;;
32228;SDS011;18717;48.034;11.186;2023-02-19T11:50:01;7.90;;;7.60;;
32228;SDS011;18717;48.034;11.186;2023-02-19T11:52:32;8.52;;;8.23;;
32228;SDS011;18717;48.034;11.186;2023-02-19T11:55:04;7.80;;;7.50;;
32228;SDS011;18717;48.034;11.186;2023-02-19T11:57:39;8.00;;;7.60;;
32228;SDS011;18717;48.034;11.186;2023-02-19T12:00:15;7.63;;;7.32;;
32228;SDS011;18717;48.034;11.186;2023-02-19T12:05:59;8.10;;;7.80;;
32228;SDS011;18717;48.034;11.186;2023-02-19T12:08:40;8.48;;;8.07;;
32228;SDS011;18717;48.034;11.186;2023-02-19T12:11:20;7.78;;;7.47;;
32228;SDS011;18717;48.034;11.186;2023-02-19T12:16:45;7.60;;;7.30;;
32228;SDS011;18717;48.034;11.186;2023-02-19T12:19:26;8.98;;;8.48;;
32228;SDS011;18717;48.034;11.186;2023-02-19T12:22:03;7.63;;;7.32;;
32228;SDS011;18717;48.034;11.186;2023-02-19T12:27:40;8.40;;;8.00;;
32228;SDS011;18717;48.034;11.186;2023-02-19T12:30:22;8.23;;;7.82;;
32228;SDS011;18717;48.034;11.186;2023-02-19T12:33:03;8.48;;;8.07;;
32228;SDS011;18717;48.034;11.186;2023-02-19T12:35:56;8.18;;;7.78;;
32228;SDS011;18717;48.034;11.186;2023-02-19T12:38:30;8.25;;;7.93;;
32228;SDS011;18717;48.034;11.186;2023-02-19T12:41:10;7.80;;;7.40;;
32228;SDS011;18717;48.034;11.186;2023-02-19T12:43:49;8.88;;;8.48;;
32228;SDS011;18717;48.034;11.186;2023-02-19T12:46:19;8.10;;;7.70;;
32228;SDS011;18717;48.034;11.186;2023-02-19T12:48:51;8.10;;;7.70;;
32228;SDS011;18717;48.034;11.186;2023-02-19T12:51:26;9.00;;;8.50;;
32228;SDS011;18717;48.034;11.186;2023-02-19T12:53:55;8.32;;;7.80;;
32228;SDS011;18717;48.034;11.186;2023-02-19T12:56:27;8.73;;;8.32;;
32228;SDS011;18717;48.034;11.186;2023-02-19T12:58:57;9.02;;;8.63;;
32228;SDS011;18717;48.034;11.186;2023-02-19T13:01:29;8.90;;;8.32;;
32228;SDS011;18717;48.034;11.186;2023-02-19T13:04:07;9.02;;;8.73;;
32228;SDS011;18717;48.034;11.186;2023-02-19T13:06:43;8.43;;;8.02;;
32228;SDS011;18717;48.034;11.186;2023-02-19T13:09:12;8.85;;;8.55;;
32228;SDS011;18717;48.034;11.186;2023-02-19T13:11:43;9.10;;;8.70;;
32228;SDS011;18717;48.034;11.186;2023-02-19T13:14:14;8.32;;;7.95;;
32228;SDS011;18717;48.034;11.186;2023-02-19T13:16:47;8.52;;;8.13;;
32228;SDS011;18717;48.034;11.186;2023-02-19T13:19:17;8.45;;;8.15;;
32228;SDS011;18717;48.034;11.186;2023-02-19T13:21:46;8.23;;;7.93;;
32228;SDS011;18717;48.034;11.186;2023-02-19T13:24:36;8.45;;;8.00;;
32228;SDS011;18717;48.034;11.186;2023-02-19T13:27:11;8.10;;;7.77;;
32228;SDS011;18717;48.034;11.186;2023-02-19T13:29:50;7.50;;;7.15;;
32228;SDS011;18717;48.034;11.186;2023-02-19T13:32:39;8.35;;;7.95;;
32228;SDS011;18717;48.034;11.186;2023-02-19T13:35:20;8.50;;;8.10;;
32228;SDS011;18717;48.034;11.186;2023-02-19T13:37:53;8.32;;;7.82;;
32228;SDS011;18717;48.034;11.186;2023-02-19T13:40:25;7.90;;;7.60;;
32228;SDS011;18717;48.034;11.186;2023-02-19T13:42:54;8.23;;;7.72;;
32228;SDS011;18717;48.034;11.186;2023-02-19T13:45:26;7.60;;;7.30;;
32228;SDS011;18717;48.034;11.186;2023-02-19T13:47:59;7.85;;;7.43;;
32228;SDS011;18717;48.034;11.186;2023-02-19T13:50:28;8.02;;;7.72;;
32228;SDS011;18717;48.034;11.186;2023-02-19T13:52:59;7.68;;;7.38;;
32228;SDS011;18717;48.034;11.186;2023-02-19T13:55:46;7.80;;;7.50;;
32228;SDS011;18717;48.034;11.186;2023-02-19T13:58:34;7.93;;;7.30;;
32228;SDS011;18717;48.034;11.186;2023-02-19T14:01:17;8.20;;;7.75;;
32228;SDS011;18717;48.034;11.186;2023-02-19T14:03:47;7.60;;;7.30;;
32228;SDS011;18717;48.034;11.186;2023-02-19T14:06:17;7.57;;;7.18;;
32228;SDS011;18717;48.034;11.186;2023-02-19T14:08:47;7.85;;;7.55;;
32228;SDS011;18717;48.034;11.186;2023-02-19T14:11:16;7.80;;;7.50;;
32228;SDS011;18717;48.034;11.186;2023-02-19T14:14:00;8.10;;;7.63;;
32228;SDS011;18717;48.034;11.186;2023-02-19T14:25:30;7.78;;;7.38;;
32228;SDS011;18717;48.034;11.186;2023-02-19T14:28:04;8.50;;;8.10;;
32228;SDS011;18717;48.034;11.186;2023-02-19T14:30:41;7.93;;;7.63;;
32228;SDS011;18717;48.034;11.186;2023-02-19T14:33:13;8.18;;;7.57;;
32228;SDS011;18717;48.034;11.186;2023-02-19T14:35:42;7.40;;;7.10;;
32228;SDS011;18717;48.034;11.186;2023-02-19T14:38:13;8.00;;;7.60;;
32228;SDS011;18717;48.034;11.186;2023-02-19T14:40:45;7.75;;;7.45;;
32228;SDS011;18717;48.034;11.186;2023-02-19T14:43:15;7.72;;;7.22;;
32228;SDS011;18717;48.034;11.186;2023-02-19T14:45:44;7.82;;;7.22;;
32228;SDS011;18717;48.034;11.186;2023-02-19T14:48:16;7.47;;;7.10;;
32228;SDS011;18717;48.034;11.186;2023-02-19T14:50:45;7.43;;;7.13;;
32228;SDS011;18717;48.034;11.186;2023-02-19T14:53:14;7.65;;;7.25;;
32228;SDS011;18717;48.034;11.186;2023-02-19T14:55:43;7.50;;;7.20;;
32228;SDS011;18717;48.034;11.186;2023-02-19T14:58:14;7.90;;;7.50;;
32228;SDS011;18717;48.034;11.186;2023-02-19T15:00:45;7.43;;;7.13;;
32228;SDS011;18717;48.034;11.186;2023-02-19T15:03:26;9.50;;;8.90;;
32228;SDS011;18717;48.034;11.186;2023-02-19T15:05:56;8.20;;;7.60;;
32228;SDS011;18717;48.034;11.186;2023-02-19T15:08:27;7.95;;;7.55;;
32228;SDS011;18717;48.034;11.186;2023-02-19T15:10:59;7.72;;;7.40;;
32228;SDS011;18717;48.034;11.186;2023-02-19T15:13:28;7.97;;;7.55;;
32228;SDS011;18717;48.034;11.186;2023-02-19T15:15:56;7.90;;;7.40;;
32228;SDS011;18717;48.034;11.186;2023-02-19T15:18:24;7.50;;;7.18;;
32228;SDS011;18717;48.034;11.186;2023-02-19T15:20:57;7.90;;;7.50;;
32228;SDS011;18717;48.034;11.186;2023-02-19T15:23:26;7.78;;;7.38;;